createdAt,value
2019-03-21T00:01:44.926Z,21.33
2019-03-21T00:04:14.949Z,18.43
2019-03-21T00:06:43.419Z,14.63
2019-03-21T00:09:14.778Z,16.17
2019-03-21T00:12:00.990Z,17.67
2019-03-21T00:14:52.423Z,20.90
2019-03-21T00:17:32.875Z,16.10
2019-03-21T00:20:01.327Z,20.67
2019-03-21T00:22:29.792Z,13.87
2019-03-21T00:24:58.334Z,17.63
2019-03-21T00:27:26.891Z,19.23
2019-03-21T00:29:55.360Z,20.63
2019-03-21T00:32:23.813Z,14.43
2019-03-21T00:34:52.318Z,15.93
2019-03-21T00:37:40.183Z,15.57
2019-03-21T00:40:17.776Z,15.97
2019-03-21T00:42:47.238Z,14.87
2019-03-21T00:45:17.131Z,15.27
2019-03-21T00:47:46.874Z,14.27
2019-03-21T00:50:18.854Z,22.63
2019-03-21T00:52:49.975Z,21.23
2019-03-21T00:55:18.436Z,19.97
2019-03-21T00:57:46.899Z,19.67
2019-03-21T01:00:21.371Z,19.40
2019-03-21T01:02:49.815Z,15.03
2019-03-21T01:05:18.342Z,18.90
2019-03-21T01:07:47.637Z,16.73
2019-03-21T01:10:32.407Z,14.87
2019-03-21T01:13:00.862Z,16.13
2019-03-21T01:15:29.332Z,14.67
2019-03-21T01:17:57.795Z,15.23
2019-03-21T01:20:26.289Z,13.90
2019-03-21T01:22:54.811Z,14.80
2019-03-21T01:25:29.707Z,18.20
2019-03-21T01:27:58.294Z,14.10
2019-03-21T01:30:26.750Z,19.57
2019-03-21T01:32:55.255Z,14.67
2019-03-21T01:35:24.051Z,21.17
2019-03-21T01:37:52.507Z,17.23
2019-03-21T01:40:23.989Z,15.03
2019-03-21T01:42:52.524Z,15.50
2019-03-21T01:45:26.223Z,13.50
2019-03-21T01:47:55.254Z,15.53
2019-03-21T01:50:26.408Z,15.10
2019-03-21T01:52:54.870Z,20.17
2019-03-21T01:55:23.412Z,18.83
2019-03-21T01:57:51.961Z,16.40
2019-03-21T02:00:26.377Z,18.97
2019-03-21T02:02:57.114Z,30.10
2019-03-21T02:05:25.575Z,31.87
2019-03-21T02:07:54.095Z,24.57
2019-03-21T02:10:22.549Z,21.20
2019-03-21T02:13:00.033Z,27.10
2019-03-21T02:15:28.496Z,26.80
2019-03-21T02:17:56.953Z,32.23
2019-03-21T02:20:25.964Z,26.83
2019-03-21T02:22:54.485Z,15.70
2019-03-21T02:25:31.338Z,19.00
2019-03-21T02:27:59.962Z,19.07
2019-03-21T02:30:37.431Z,16.17
2019-03-21T02:33:09.168Z,16.63
2019-03-21T02:35:37.644Z,19.90
2019-03-21T02:38:06.104Z,17.73
2019-03-21T02:40:34.639Z,20.33
2019-03-21T02:43:03.265Z,17.63
2019-03-21T02:45:31.812Z,20.07
2019-03-21T02:48:00.268Z,15.80
2019-03-21T02:50:37.606Z,17.57
2019-03-21T02:53:07.484Z,22.43
2019-03-21T02:55:35.930Z,20.57
2019-03-21T02:58:05.224Z,15.47
2019-03-21T03:00:35.659Z,21.10
2019-03-21T03:03:04.940Z,17.73
2019-03-21T03:05:34.908Z,18.17
2019-03-21T03:08:05.111Z,21.77
2019-03-21T03:10:42.612Z,20.73
2019-03-21T03:13:11.986Z,21.53
2019-03-21T03:15:41.896Z,21.10
2019-03-21T03:18:13.432Z,21.23
2019-03-21T03:20:41.964Z,18.00
2019-03-21T03:23:10.422Z,21.17
2019-03-21T03:25:39.155Z,21.67
2019-03-21T03:28:29.904Z,25.77
2019-03-21T03:30:59.006Z,23.73
2019-03-21T03:33:28.135Z,23.80
2019-03-21T03:35:56.635Z,26.30
2019-03-21T03:38:25.183Z,19.17
2019-03-21T03:41:06.907Z,20.90
2019-03-21T03:43:35.415Z,22.23
2019-03-21T03:46:03.883Z,26.27
2019-03-21T03:48:32.459Z,22.27
2019-03-21T03:51:00.997Z,21.93
2019-03-21T03:53:29.522Z,23.23
2019-03-21T03:55:58.018Z,23.63
2019-03-21T03:58:28.952Z,21.93
2019-03-21T04:00:58.841Z,21.33
2019-03-21T04:03:28.493Z,29.57
2019-03-21T04:05:57.131Z,24.60
2019-03-21T04:08:25.977Z,25.13
2019-03-21T04:10:56.664Z,22.97
2019-03-21T04:13:25.196Z,21.67
2019-03-21T04:15:54.262Z,19.03
2019-03-21T04:18:24.925Z,23.83
2019-03-21T04:21:08.897Z,21.40
2019-03-21T04:23:37.377Z,21.37
2019-03-21T04:26:20.799Z,19.53
2019-03-21T04:28:49.491Z,24.37
2019-03-21T04:31:17.976Z,17.77
2019-03-21T04:33:48.352Z,19.90
2019-03-21T04:36:16.853Z,25.10
2019-03-21T04:38:45.307Z,23.63
2019-03-21T04:41:13.761Z,20.97
2019-03-21T04:43:42.225Z,23.10
2019-03-21T04:46:10.678Z,23.17
2019-03-21T04:48:39.144Z,22.80
2019-03-21T04:51:07.598Z,26.50
2019-03-21T04:53:36.712Z,26.43
2019-03-21T04:56:05.614Z,21.97
2019-03-21T04:58:34.058Z,22.13
2019-03-21T05:01:03.293Z,22.57
2019-03-21T05:03:33.243Z,21.33
2019-03-21T05:06:01.701Z,22.63
2019-03-21T05:08:30.183Z,22.27
2019-03-21T05:10:58.701Z,23.97
2019-03-21T05:13:27.156Z,22.73
2019-03-21T05:15:55.618Z,26.07
2019-03-21T05:18:33.086Z,23.73
2019-03-21T05:21:02.863Z,20.67
2019-03-21T05:23:31.315Z,21.77
2019-03-21T05:25:59.915Z,22.47
2019-03-21T05:28:36.532Z,21.33
2019-03-21T05:31:14.254Z,22.27
2019-03-21T05:33:42.731Z,18.57
2019-03-21T05:36:11.289Z,22.30
2019-03-21T05:38:39.748Z,25.60
2019-03-21T05:41:08.206Z,22.50
2019-03-21T05:43:45.924Z,27.63
2019-03-21T05:46:25.663Z,22.27
2019-03-21T05:48:44.874Z,27.47
2019-03-21T05:51:14.207Z,23.00
2019-03-21T05:53:42.674Z,20.77
2019-03-21T05:56:11.217Z,21.83
2019-03-21T05:58:39.796Z,26.57
2019-03-21T06:01:12.307Z,24.03
2019-03-21T06:03:51.750Z,19.87
2019-03-21T06:06:29.317Z,24.87
2019-03-21T06:08:57.856Z,21.97
2019-03-21T06:11:26.311Z,19.70
2019-03-21T06:13:54.777Z,27.03
2019-03-21T06:16:23.312Z,18.73
2019-03-21T06:18:57.874Z,23.83
2019-03-21T06:21:56.527Z,24.47
2019-03-21T06:24:43.325Z,28.13
2019-03-21T06:27:31.054Z,27.23
2019-03-21T06:29:59.669Z,22.70
2019-03-21T06:32:29.026Z,25.83
2019-03-21T06:34:57.628Z,22.70
2019-03-21T06:37:28.733Z,20.87
2019-03-21T06:39:57.025Z,22.73
2019-03-21T06:42:25.556Z,26.50
2019-03-21T06:44:54.014Z,24.70
2019-03-21T06:47:22.496Z,20.57
2019-03-21T06:49:50.972Z,24.77
2019-03-21T06:52:19.503Z,21.50
2019-03-21T06:54:48.101Z,23.73
2019-03-21T06:57:16.663Z,21.77
2019-03-21T06:59:45.211Z,22.90
2019-03-21T07:02:13.665Z,23.70
2019-03-21T07:04:42.179Z,26.13
2019-03-21T07:07:10.640Z,23.13
2019-03-21T07:09:39.184Z,28.57
2019-03-21T07:12:07.819Z,23.13
2019-03-21T07:14:36.269Z,20.30
2019-03-21T07:17:04.774Z,24.40
2019-03-21T07:19:33.324Z,28.73
2019-03-21T07:22:01.856Z,27.33
2019-03-21T07:24:30.342Z,27.60
2019-03-21T07:26:58.831Z,25.03
2019-03-21T07:29:27.360Z,23.43
2019-03-21T07:31:55.826Z,25.50
2019-03-21T07:34:24.322Z,27.90
2019-03-21T07:36:52.775Z,21.93
2019-03-21T07:39:21.226Z,22.60
2019-03-21T07:41:49.686Z,23.00
2019-03-21T07:44:18.144Z,22.57
2019-03-21T07:46:46.599Z,33.90
2019-03-21T07:49:15.074Z,25.43
2019-03-21T07:51:45.155Z,24.70
2019-03-21T07:54:13.713Z,22.80
2019-03-21T07:56:42.258Z,23.50
2019-03-21T07:59:10.811Z,25.37
2019-03-21T08:01:39.270Z,24.93
2019-03-21T08:04:07.723Z,24.13
2019-03-21T08:06:36.186Z,23.03
2019-03-21T08:09:07.088Z,25.07
2019-03-21T08:11:36.081Z,22.73
2019-03-21T08:14:04.819Z,24.00
2019-03-21T08:16:33.281Z,20.53
2019-03-21T08:19:01.764Z,21.23
2019-03-21T08:21:30.264Z,56.67
2019-03-21T08:23:58.801Z,26.33
2019-03-21T08:26:27.329Z,28.83
2019-03-21T08:28:56.071Z,26.47
2019-03-21T08:31:24.625Z,25.63
2019-03-21T08:34:12.460Z,24.03
2019-03-21T08:36:40.991Z,24.50
2019-03-21T08:39:09.452Z,25.60
2019-03-21T08:41:38.075Z,21.97
2019-03-21T08:44:06.556Z,27.53
2019-03-21T08:46:35.095Z,26.37
2019-03-21T08:49:03.564Z,22.03
2019-03-21T08:51:32.125Z,25.57
2019-03-21T08:54:00.631Z,27.47
2019-03-21T08:56:29.090Z,23.97
2019-03-21T08:58:57.554Z,25.63
2019-03-21T09:01:26.047Z,24.67
2019-03-21T09:03:54.506Z,23.97
2019-03-21T09:06:22.964Z,26.47
2019-03-21T09:08:51.512Z,26.00
2019-03-21T09:11:19.969Z,24.83
2019-03-21T09:13:48.497Z,23.07
2019-03-21T09:16:17.037Z,30.00
2019-03-21T09:18:45.580Z,26.57
2019-03-21T09:21:19.756Z,24.83
2019-03-21T09:23:44.238Z,22.57
2019-03-21T09:26:12.771Z,29.50
2019-03-21T09:28:41.340Z,28.97
2019-03-21T09:31:09.825Z,24.97
2019-03-21T09:33:38.296Z,23.70
2019-03-21T09:36:06.786Z,26.73
2019-03-21T09:38:35.264Z,24.27
2019-03-21T09:41:03.742Z,26.70
2019-03-21T09:43:32.198Z,25.63
2019-03-21T09:46:00.667Z,19.87
2019-03-21T09:48:29.212Z,23.23
2019-03-21T09:50:57.737Z,23.67
2019-03-21T09:53:26.212Z,20.33
2019-03-21T09:55:55.016Z,22.90
2019-03-21T09:58:23.469Z,27.90
2019-03-21T10:00:51.934Z,27.13
2019-03-21T10:03:20.392Z,27.80
2019-03-21T10:05:48.866Z,22.37
2019-03-21T10:08:17.513Z,24.93
2019-03-21T10:10:46.049Z,25.03
2019-03-21T10:13:14.524Z,25.47
2019-03-21T10:15:42.991Z,24.30
2019-03-21T10:18:11.550Z,24.37
2019-03-21T10:20:40.011Z,21.00
2019-03-21T10:23:08.475Z,21.83
2019-03-21T10:25:37.016Z,28.30
2019-03-21T10:28:05.482Z,22.17
2019-03-21T10:30:36.304Z,22.30
2019-03-21T10:33:07.777Z,21.10
2019-03-21T10:35:36.228Z,20.43
2019-03-21T10:38:05.437Z,19.23
2019-03-21T10:40:33.906Z,20.10
2019-03-21T10:43:02.374Z,19.17
2019-03-21T10:45:30.907Z,16.27
2019-03-21T10:47:59.406Z,16.03
2019-03-21T10:50:33.989Z,21.87
2019-03-21T10:53:02.816Z,19.67
2019-03-21T10:55:31.282Z,18.27
2019-03-21T10:57:59.749Z,18.73
2019-03-21T11:00:28.557Z,18.10
2019-03-21T11:02:57.082Z,14.70
2019-03-21T11:05:25.676Z,15.50
2019-03-21T11:07:54.141Z,17.03
2019-03-21T11:10:22.711Z,14.67
2019-03-21T11:12:51.683Z,16.53
2019-03-21T11:15:20.227Z,14.93
2019-03-21T11:17:49.402Z,24.40
2019-03-21T11:20:32.182Z,18.40
2019-03-21T11:23:00.834Z,20.83
2019-03-21T11:25:29.832Z,15.87
2019-03-21T11:27:58.295Z,19.23
2019-03-21T11:30:35.268Z,15.30
2019-03-21T11:33:04.196Z,16.30
2019-03-21T11:35:34.103Z,22.43
2019-03-21T11:38:02.773Z,17.53
2019-03-21T11:40:31.296Z,18.00
2019-03-21T11:43:00.504Z,14.70
2019-03-21T11:45:29.245Z,14.33
2019-03-21T11:47:59.695Z,13.03
2019-03-21T11:50:28.018Z,11.37
2019-03-21T11:52:56.742Z,12.13
2019-03-21T11:55:25.343Z,14.50
2019-03-21T11:57:53.982Z,14.67
2019-03-21T12:00:22.493Z,13.73
2019-03-21T12:02:51.001Z,15.83
2019-03-21T12:05:19.458Z,13.37
2019-03-21T12:07:48.000Z,17.37
2019-03-21T12:10:17.495Z,11.33
2019-03-21T12:12:46.226Z,11.87
2019-03-21T12:15:15.123Z,14.97
2019-03-21T12:17:43.582Z,14.83
2019-03-21T12:20:14.686Z,13.93
2019-03-21T12:22:43.160Z,15.20
2019-03-21T12:25:12.081Z,12.57
2019-03-21T12:27:40.561Z,12.80
2019-03-21T12:30:27.208Z,11.87
2019-03-21T12:32:55.661Z,14.07
2019-03-21T12:35:24.122Z,14.40
2019-03-21T12:37:52.617Z,11.20
2019-03-21T12:40:21.151Z,10.77
2019-03-21T12:42:49.687Z,12.87
2019-03-21T12:45:18.155Z,12.77
2019-03-21T12:47:46.687Z,13.47
2019-03-21T12:50:15.146Z,14.00
2019-03-21T12:52:43.597Z,12.50
2019-03-21T12:55:12.632Z,10.70
2019-03-21T12:57:41.097Z,10.67
2019-03-21T13:00:14.511Z,12.63
2019-03-21T13:02:43.230Z,11.03
2019-03-21T13:05:17.982Z,15.17
2019-03-21T13:07:46.449Z,15.10
2019-03-21T13:10:15.002Z,16.10
2019-03-21T13:12:43.468Z,10.73
2019-03-21T13:15:11.913Z,11.03
2019-03-21T13:17:40.381Z,8.87
2019-03-21T13:20:09.266Z,17.57
2019-03-21T13:22:37.721Z,14.77
2019-03-21T13:25:07.363Z,25.97
2019-03-21T13:27:35.814Z,10.67
2019-03-21T13:30:06.228Z,10.43
2019-03-21T13:32:34.764Z,9.93
2019-03-21T13:35:31.989Z,9.20
2019-03-21T13:37:53.959Z,10.73
2019-03-21T13:40:22.808Z,11.30
2019-03-21T13:42:51.270Z,10.37
2019-03-21T13:45:19.897Z,9.97
2019-03-21T13:47:48.430Z,8.63
2019-03-21T13:50:16.899Z,8.70
2019-03-21T13:52:45.406Z,14.53
2019-03-21T13:55:14.712Z,18.63
2019-03-21T13:57:43.172Z,16.57
2019-03-21T14:00:14.869Z,14.17
2019-03-21T14:02:43.394Z,21.33
2019-03-21T14:05:12.513Z,16.47
2019-03-21T14:07:40.981Z,12.27
2019-03-21T14:10:11.089Z,15.80
2019-03-21T14:12:39.657Z,14.87
2019-03-21T14:15:13.989Z,19.63
2019-03-21T14:17:42.515Z,16.53
2019-03-21T14:20:12.702Z,16.67
2019-03-21T14:22:41.170Z,15.07
2019-03-21T14:25:10.280Z,20.30
2019-03-21T14:27:38.760Z,19.00
2019-03-21T14:30:10.136Z,33.03
2019-03-21T14:32:38.631Z,25.97
2019-03-21T14:35:08.119Z,14.83
2019-03-21T14:37:36.582Z,17.30
2019-03-21T14:40:07.956Z,17.63
2019-03-21T14:42:36.578Z,20.97
2019-03-21T14:45:08.109Z,39.50
2019-03-21T14:47:36.685Z,22.03
2019-03-21T14:50:10.355Z,20.43
2019-03-21T14:52:38.833Z,17.60
2019-03-21T14:55:09.619Z,17.57
2019-03-21T14:57:38.083Z,18.67
2019-03-21T15:00:12.511Z,16.33
2019-03-21T15:02:41.032Z,20.10
2019-03-21T15:05:10.212Z,15.27
2019-03-21T15:07:38.842Z,16.20
2019-03-21T15:10:10.321Z,18.67
2019-03-21T15:12:38.856Z,18.93
2019-03-21T15:15:09.605Z,15.27
2019-03-21T15:17:38.072Z,17.43
2019-03-21T15:20:10.316Z,17.07
2019-03-21T15:22:38.778Z,17.90
2019-03-21T15:25:08.975Z,18.30
2019-03-21T15:27:37.537Z,20.03
2019-03-21T15:30:09.171Z,22.63
2019-03-21T15:32:38.427Z,18.80
2019-03-21T15:35:09.511Z,24.80
2019-03-21T15:37:37.992Z,21.87
2019-03-21T15:40:09.929Z,16.77
2019-03-21T15:42:38.939Z,18.93
2019-03-21T15:45:21.426Z,24.03
2019-03-21T15:47:41.511Z,21.80
2019-03-21T15:50:28.188Z,16.63
2019-03-21T15:52:57.478Z,18.23
2019-03-21T15:55:25.999Z,18.40
2019-03-21T15:57:54.463Z,14.90
2019-03-21T16:00:32.109Z,15.43
2019-03-21T16:03:00.571Z,15.37
2019-03-21T16:05:29.109Z,16.67
2019-03-21T16:07:57.620Z,15.90
2019-03-21T16:10:26.315Z,17.40
2019-03-21T16:12:54.852Z,19.73
2019-03-21T16:15:23.465Z,17.80
2019-03-21T16:17:52.002Z,17.83
2019-03-21T16:20:20.631Z,16.03
2019-03-21T16:22:49.105Z,19.20
2019-03-21T16:25:17.699Z,19.50
2019-03-21T16:27:46.182Z,18.57
2019-03-21T16:30:15.086Z,17.60
2019-03-21T16:32:43.550Z,16.83
2019-03-21T16:35:12.648Z,16.57
2019-03-21T16:37:52.912Z,14.83
2019-03-21T16:40:21.382Z,19.67
2019-03-21T16:42:49.853Z,19.67
2019-03-21T16:45:21.279Z,16.63
2019-03-21T16:47:49.506Z,19.20
2019-03-21T16:50:18.209Z,24.03
2019-03-21T16:52:46.674Z,35.57
2019-03-21T16:55:16.381Z,33.23
2019-03-21T16:57:44.906Z,39.30
2019-03-21T17:00:17.787Z,30.43
2019-03-21T17:02:47.572Z,32.53
2019-03-21T17:05:16.043Z,26.47
2019-03-21T17:07:51.938Z,29.90
2019-03-21T17:10:20.507Z,35.57
2019-03-21T17:12:49.463Z,33.93
2019-03-21T17:15:18.461Z,46.03
2019-03-21T17:17:47.165Z,55.17
2019-03-21T17:20:16.508Z,49.27
2019-03-21T17:22:45.006Z,61.23
2019-03-21T17:25:13.714Z,63.97
2019-03-21T17:27:42.355Z,71.23
2019-03-21T17:30:16.141Z,71.50
2019-03-21T17:32:45.591Z,68.90
2019-03-21T17:35:14.486Z,38.70
2019-03-21T17:37:42.949Z,35.43
2019-03-21T17:40:15.485Z,31.53
2019-03-21T17:42:44.037Z,28.20
2019-03-21T17:45:15.683Z,27.20
2019-03-21T17:47:44.192Z,27.20
2019-03-21T17:50:14.887Z,22.87
2019-03-21T17:52:43.360Z,23.03
2019-03-21T17:55:12.368Z,21.47
2019-03-21T17:57:40.906Z,21.10
2019-03-21T18:00:22.383Z,18.67
2019-03-21T18:02:51.099Z,20.27
2019-03-21T18:05:19.562Z,25.53
2019-03-21T18:07:48.018Z,24.07
2019-03-21T18:10:25.656Z,21.40
2019-03-21T18:12:54.121Z,24.10
2019-03-21T18:15:22.660Z,24.20
2019-03-21T18:17:51.131Z,26.37
2019-03-21T18:20:19.586Z,26.50
2019-03-21T18:22:48.158Z,26.67
2019-03-21T18:25:16.956Z,26.40
2019-03-21T18:27:45.424Z,29.57
2019-03-21T18:30:14.828Z,25.93
2019-03-21T18:32:43.443Z,24.00
2019-03-21T18:35:12.828Z,25.30
2019-03-21T18:37:41.334Z,29.63
2019-03-21T18:40:11.435Z,26.67
2019-03-21T18:42:39.903Z,24.80
2019-03-21T18:45:11.308Z,23.17
2019-03-21T18:47:39.783Z,26.10
2019-03-21T18:50:11.094Z,27.10
2019-03-21T18:52:39.620Z,27.67
2019-03-21T18:55:09.229Z,24.70
2019-03-21T18:57:37.799Z,23.17
2019-03-21T19:00:09.358Z,31.20
2019-03-21T19:02:37.903Z,27.83
2019-03-21T19:05:07.202Z,29.40
2019-03-21T19:07:35.739Z,24.07
2019-03-21T19:10:06.746Z,26.67
2019-03-21T19:12:35.198Z,30.17
2019-03-21T19:15:05.475Z,29.20
2019-03-21T19:17:34.019Z,28.80
2019-03-21T19:20:02.731Z,31.47
2019-03-21T19:22:31.490Z,28.57
2019-03-21T19:24:59.945Z,30.90
2019-03-21T19:27:28.705Z,30.33
2019-03-21T19:29:57.221Z,26.63
2019-03-21T19:32:25.724Z,34.83
2019-03-21T19:34:54.519Z,28.73
2019-03-21T19:37:23.000Z,33.83
2019-03-21T19:39:51.483Z,29.00
2019-03-21T19:42:20.011Z,31.07
2019-03-21T19:44:48.487Z,30.20
2019-03-21T19:47:23.517Z,35.73
2019-03-21T19:49:47.153Z,31.40
2019-03-21T19:52:15.612Z,32.63
2019-03-21T19:54:44.113Z,30.10
2019-03-21T19:57:12.580Z,32.03
2019-03-21T19:59:41.039Z,30.73
2019-03-21T20:02:09.509Z,30.17
2019-03-21T20:04:38.063Z,32.53
2019-03-21T20:07:07.309Z,32.23
2019-03-21T20:09:35.769Z,29.80
2019-03-21T20:12:04.605Z,32.03
2019-03-21T20:14:33.069Z,28.33
2019-03-21T20:17:01.609Z,31.30
2019-03-21T20:19:30.189Z,33.77
2019-03-21T20:21:58.663Z,30.03
2019-03-21T20:24:27.687Z,33.93
2019-03-21T20:26:56.187Z,30.53
2019-03-21T20:29:25.366Z,33.00
2019-03-21T20:31:53.875Z,37.67
2019-03-21T20:34:22.342Z,25.53
2019-03-21T20:36:50.804Z,31.07
2019-03-21T20:39:19.298Z,28.90
2019-03-21T20:41:47.959Z,27.20
2019-03-21T20:44:16.425Z,31.70
2019-03-21T20:46:44.984Z,30.27
2019-03-21T20:49:13.505Z,30.47
2019-03-21T20:51:42.015Z,31.00
2019-03-21T20:54:10.489Z,29.17
2019-03-21T20:56:39.238Z,33.07
2019-03-21T20:59:07.703Z,27.30
2019-03-21T21:01:36.173Z,32.23
2019-03-21T21:04:04.983Z,29.70
2019-03-21T21:06:33.434Z,28.93
2019-03-21T21:09:01.922Z,30.83
2019-03-21T21:11:30.400Z,30.77
2019-03-21T21:13:58.934Z,37.17
2019-03-21T21:16:27.408Z,33.50
2019-03-21T21:18:55.981Z,27.13
2019-03-21T21:21:24.526Z,34.37
2019-03-21T21:23:52.991Z,32.77
2019-03-21T21:26:21.666Z,36.53
2019-03-21T21:28:50.134Z,34.23
2019-03-21T21:31:18.772Z,33.40
2019-03-21T21:33:47.239Z,36.17
2019-03-21T21:36:21.923Z,40.80
2019-03-21T21:38:45.909Z,33.20
2019-03-21T21:41:14.475Z,33.23
2019-03-21T21:43:42.948Z,40.67
2019-03-21T21:46:30.767Z,33.60
2019-03-21T21:48:59.229Z,35.30
2019-03-21T21:51:27.714Z,37.13
2019-03-21T21:53:56.271Z,34.93
2019-03-21T21:56:24.731Z,34.40
2019-03-21T21:58:53.202Z,37.97
2019-03-21T22:01:21.698Z,42.87
2019-03-21T22:03:50.162Z,40.47
2019-03-21T22:06:18.627Z,38.40
2019-03-21T22:08:47.080Z,37.57
2019-03-21T22:11:15.550Z,38.47
2019-03-21T22:13:44.043Z,38.23
2019-03-21T22:16:12.528Z,38.00
2019-03-21T22:18:41.104Z,39.20
2019-03-21T22:21:09.635Z,37.60
2019-03-21T22:23:38.104Z,35.67
2019-03-21T22:26:06.609Z,37.73
2019-03-21T22:28:35.142Z,42.20
2019-03-21T22:31:03.677Z,35.40
2019-03-21T22:33:32.183Z,33.63
2019-03-21T22:36:00.722Z,40.00
2019-03-21T22:38:29.192Z,36.10
2019-03-21T22:40:57.659Z,40.10
2019-03-21T22:43:26.203Z,39.53
2019-03-21T22:45:54.655Z,34.93
2019-03-21T22:48:23.178Z,35.93
2019-03-21T22:50:51.642Z,34.90
2019-03-21T22:53:20.106Z,36.97
2019-03-21T22:55:48.561Z,32.97
2019-03-21T22:58:17.051Z,37.30
2019-03-21T23:00:47.146Z,37.30
2019-03-21T23:03:16.087Z,35.13
2019-03-21T23:05:44.587Z,35.93
2019-03-21T23:08:13.127Z,30.03
2019-03-21T23:10:41.661Z,33.40
2019-03-21T23:13:10.470Z,37.23
2019-03-21T23:15:39.009Z,36.30
2019-03-21T23:18:07.466Z,39.33
2019-03-21T23:20:35.997Z,35.10
2019-03-21T23:23:04.469Z,39.50
2019-03-21T23:25:32.998Z,38.60
2019-03-21T23:28:01.468Z,36.17
2019-03-21T23:30:29.967Z,37.17
2019-03-21T23:32:58.503Z,37.03
2019-03-21T23:35:27.026Z,43.20
2019-03-21T23:37:55.535Z,37.83
2019-03-21T23:40:24.079Z,36.70
2019-03-21T23:42:52.604Z,41.97
2019-03-21T23:45:21.144Z,40.20
2019-03-21T23:47:49.604Z,37.00
2019-03-21T23:50:18.065Z,41.83
2019-03-21T23:52:46.531Z,40.47
2019-03-21T23:55:15.713Z,40.70
2019-03-21T23:57:44.219Z,37.63
